AEST,Max TemperatureF,Mean TemperatureF,Min TemperatureF,Max Dew PointF,MeanDew PointF,Min DewpointF,Max Humidity, Mean Humidity, Min Humidity, Max Sea Level PressureIn, Mean Sea Level PressureIn, Min Sea Level PressureIn, Max VisibilityMiles, Mean VisibilityMiles, Min VisibilityMiles, Max Wind SpeedMPH, Mean Wind SpeedMPH, Max Gust SpeedMPH,PrecipitationIn, CloudCover, Events, WindDirDegrees
2014-1-1,88,81,74,75,72,68,89,71,53,29.85,29.79,29.74,19,7,6,13,7,,0.00,2,,354
2014-1-2,89,82,75,73,72,71,94,72,49,29.89,29.83,29.77,19,7,6,10,6,,0.00,2,,20
2014-1-3,90,83,76,75,74,71,89,74,52,29.83,29.76,29.68,19,7,6,14,6,,0.00,3,,344
2014-1-4,89,84,80,77,76,73,89,74,53,29.77,29.69,29.62,19,7,6,12,7,,0.00,3,,333
2014-1-5,90,86,81,79,78,76,89,77,61,29.77,29.69,29.62,16,7,6,13,7,,0.01,4,,12
2014-1-6,89,84,80,81,75,72,94,72,51,29.80,29.74,29.68,19,7,6,12,7,,0.00,4,Rain,104
2014-1-7,92,82,73,72,70,63,94,64,30,29.80,29.74,29.68,19,7,6,17,8,,0.00,2,,141
2014-1-8,91,83,75,75,72,69,89,68,39,29.84,29.77,29.71,19,7,6,20,10,,0.02,2,Rain,131
2014-1-9,93,85,77,74,71,66,89,65,36,29.88,29.81,29.74,19,7,6,18,10,,0.00,2,Rain,150
2014-1-10,90,82,75,75,72,67,94,70,38,29.89,29.83,29.77,16,6,4,22,11,,0.20,4,Rain,154
2014-1-11,89,82,74,75,73,70,94,83,50,29.88,29.83,29.77,6,5,3,18,12,,1.93,6,Rain,173
2014-1-12,83,78,73,77,74,72,100,88,73,29.86,29.81,29.77,16,6,1,17,9,,1.50,5,Rain,175
2014-1-13,79,76,74,74,72,71,94,85,73,29.86,29.81,29.74,12,6,3,18,12,,0.16,6,Rain,175
2014-1-14,82,78,73,75,72,69,96,86,66,29.90,29.83,29.77,16,5,2,20,12,25,1.18,6,Rain,181
2014-1-15,84,79,74,74,72,69,94,77,52,29.90,29.86,29.80,16,6,4,21,12,34,0.00,6,Rain,159
2014-1-16,86,80,73,75,72,70,94,79,51,29.88,29.83,29.77,19,6,2,20,11,,0.20,5,Rain,171
2014-1-17,87,80,72,74,71,68,94,77,56,29.84,29.80,29.74,19,7,6,22,11,,0.01,4,Rain,152
2014-1-18,89,82,74,72,71,68,89,70,42,29.85,29.79,29.71,19,7,6,17,10,,0.00,3,,144
2014-1-19,86,78,71,73,72,69,100,77,52,29.83,29.77,29.71,19,7,6,10,4,,0.00,4,,49
2014-1-20,87,80,73,75,73,72,94,77,55,29.80,29.75,29.68,19,7,6,10,3,,0.00,4,,8
2014-1-21,86,80,73,75,71,70,94,73,52,29.82,29.77,29.71,19,7,6,13,5,,0.00,3,,110
2014-1-22,89,82,74,75,69,63,89,64,34,29.86,29.80,29.74,19,7,4,17,9,,0.08,4,Rain,143
2014-1-23,86,80,75,79,75,70,100,89,70,29.86,29.81,29.77,16,5,3,15,10,,2.20,5,Rain-Thunderstorm,168
2014-1-24,88,82,75,77,74,72,100,77,51,29.83,29.77,29.68,19,7,3,16,8,,0.01,5,Rain,156
2014-1-25,91,84,76,77,76,73,94,77,57,29.79,29.73,29.65,19,7,6,18,9,,0.00,4,,119
2014-1-26,91,83,75,77,74,70,100,73,40,29.78,29.73,29.68,19,7,2,24,11,34,1.14,5,Rain,157
2014-1-27,87,80,74,77,75,71,100,84,59,29.78,29.72,29.65,16,6,2,25,15,36,0.87,6,Rain,163
2014-1-28,86,81,76,77,75,72,95,87,59,29.72,29.66,29.59,12,5,1,40,18,51,0.83,6,Rain,158
2014-1-29,86,81,76,75,73,70,92,77,56,29.68,29.62,29.56,16,7,2,36,18,48,0.16,6,Rain,168
2014-1-30,88,82,75,74,70,66,83,63,43,29.61,29.55,29.50,19,7,6,17,10,29,0.00,6,,198
2014-1-31,91,82,73,79,73,67,89,73,49,29.60,29.53,29.47,19,7,6,17,7,,0.00,5,,344